createdAt,value
2022-09-14T00:00:28.738Z,4.50
2022-09-14T00:02:56.775Z,4.45
2022-09-14T00:05:25.037Z,4.22
2022-09-14T00:07:52.778Z,4.30
2022-09-14T00:10:23.540Z,4.28
2022-09-14T00:12:51.276Z,4.10
2022-09-14T00:15:19.176Z,4.35
2022-09-14T00:17:47.021Z,4.20
2022-09-14T00:20:14.902Z,3.58
2022-09-14T00:22:42.704Z,3.88
2022-09-14T00:25:11.705Z,3.90
2022-09-14T00:27:40.814Z,4.40
2022-09-14T00:30:09.027Z,3.38
2022-09-14T00:32:36.797Z,3.05
2022-09-14T00:35:05.049Z,2.70
2022-09-14T00:37:32.948Z,2.30
2022-09-14T00:40:00.836Z,2.40
2022-09-14T00:42:28.596Z,2.33
2022-09-14T00:45:05.573Z,2.13
2022-09-14T00:47:34.008Z,2.22
2022-09-14T00:50:02.728Z,2.22
2022-09-14T00:52:32.986Z,2.13
2022-09-14T00:55:02.400Z,2.30
2022-09-14T00:57:31.464Z,3.10
2022-09-14T00:59:59.264Z,2.20
2022-09-14T01:02:29.051Z,2.40
2022-09-14T01:04:56.932Z,1.80
2022-09-14T01:07:31.658Z,2.13
2022-09-14T01:10:02.889Z,2.20
2022-09-14T01:12:35.248Z,2.38
2022-09-14T01:15:06.811Z,2.55
2022-09-14T01:17:40.350Z,2.17
2022-09-14T01:20:11.965Z,2.35
2022-09-14T01:22:46.911Z,1.90
2022-09-14T01:25:20.905Z,1.60
2022-09-14T01:27:53.232Z,2.47
2022-09-14T01:30:22.639Z,1.88
2022-09-14T01:32:51.915Z,2.00
2022-09-14T01:35:22.860Z,2.40
2022-09-14T01:37:52.703Z,2.00
2022-09-14T01:40:23.607Z,2.28
2022-09-14T01:42:56.550Z,2.08
2022-09-14T01:45:25.047Z,1.90
2022-09-14T01:47:55.332Z,2.35
2022-09-14T01:50:25.479Z,2.20
2022-09-14T01:52:55.640Z,2.45
2022-09-14T01:55:25.566Z,2.42
2022-09-14T01:57:56.689Z,2.35
2022-09-14T02:00:24.401Z,2.30
2022-09-14T02:02:54.892Z,3.45
2022-09-14T02:05:27.643Z,2.20
2022-09-14T02:07:55.742Z,1.70
2022-09-14T02:10:24.423Z,1.70
2022-09-14T02:12:52.484Z,2.33
2022-09-14T02:15:22.280Z,1.80
2022-09-14T02:17:50.268Z,1.90
2022-09-14T02:20:21.910Z,1.98
2022-09-14T02:22:51.221Z,2.70
2022-09-14T02:25:18.930Z,2.00
2022-09-14T02:27:47.575Z,1.67
2022-09-14T02:30:15.815Z,1.88
2022-09-14T02:32:50.004Z,2.00
2022-09-14T02:35:19.701Z,1.52
2022-09-14T02:37:51.122Z,1.40
2022-09-14T02:40:24.342Z,1.63
2022-09-14T02:42:57.430Z,1.80
2022-09-14T02:47:56.233Z,1.48
2022-09-14T02:50:26.792Z,1.65
2022-09-14T02:52:57.694Z,1.40
2022-09-14T02:55:27.242Z,1.48
2022-09-14T02:58:01.754Z,1.45
2022-09-14T03:00:30.458Z,1.70
2022-09-14T03:02:59.901Z,1.60
2022-09-14T03:05:27.618Z,1.27
2022-09-14T03:07:55.718Z,1.42
2022-09-14T03:10:23.538Z,2.72
2022-09-14T03:12:51.305Z,1.50
2022-09-14T03:15:19.023Z,1.38
2022-09-14T03:17:47.451Z,2.08
2022-09-14T03:20:19.437Z,1.63
2022-09-14T03:22:50.387Z,2.05
2022-09-14T03:25:19.016Z,1.58
2022-09-14T03:27:49.795Z,1.38
2022-09-14T03:30:17.718Z,1.30
2022-09-14T03:32:45.740Z,1.65
2022-09-14T03:35:14.116Z,1.75
2022-09-14T03:37:44.054Z,1.33
2022-09-14T03:40:12.986Z,1.70
2022-09-14T03:42:42.703Z,1.75
2022-09-14T03:45:11.208Z,1.75
2022-09-14T03:47:39.209Z,1.98
2022-09-14T03:50:07.473Z,1.63
2022-09-14T03:52:35.375Z,1.95
2022-09-14T03:55:04.804Z,2.67
2022-09-14T03:57:32.768Z,1.10
2022-09-14T04:00:01.027Z,1.77
2022-09-14T04:02:28.973Z,1.90
2022-09-14T04:04:57.145Z,2.38
2022-09-14T04:07:25.330Z,2.10
2022-09-14T04:09:53.253Z,1.75
2022-09-14T04:12:22.303Z,1.80
2022-09-14T04:14:50.033Z,2.17
2022-09-14T04:17:18.379Z,2.05
2022-09-14T04:19:46.136Z,1.75
2022-09-14T04:22:13.867Z,2.35
2022-09-14T04:24:41.885Z,1.48
2022-09-14T04:27:09.834Z,1.90
2022-09-14T04:29:39.363Z,1.58
2022-09-14T04:32:07.353Z,1.98
2022-09-14T04:34:35.529Z,2.10
2022-09-14T04:37:03.534Z,1.58
2022-09-14T04:39:31.318Z,1.20
2022-09-14T04:41:59.248Z,1.50
2022-09-14T04:44:26.939Z,2.08
2022-09-14T04:46:56.105Z,1.45
2022-09-14T04:49:24.127Z,1.60
2022-09-14T04:51:51.920Z,1.65
2022-09-14T04:54:19.951Z,1.33
2022-09-14T04:56:47.760Z,1.45
2022-09-14T04:59:16.237Z,1.42
2022-09-14T05:01:45.406Z,1.20
2022-09-14T05:04:14.677Z,1.70
2022-09-14T05:06:43.184Z,1.50
2022-09-14T05:09:15.116Z,1.20
2022-09-14T05:11:43.273Z,2.15
2022-09-14T05:14:12.330Z,1.80
2022-09-14T05:16:40.670Z,1.63
2022-09-14T05:19:09.352Z,1.33
2022-09-14T05:21:38.552Z,1.00
2022-09-14T05:24:08.022Z,1.20
2022-09-14T05:26:35.977Z,1.10
2022-09-14T05:29:03.957Z,1.20
2022-09-14T05:31:32.143Z,1.02
2022-09-14T05:34:00.312Z,1.48
2022-09-14T05:36:28.047Z,1.38
2022-09-14T05:38:58.895Z,1.13
2022-09-14T05:41:26.627Z,1.23
2022-09-14T05:43:54.403Z,1.35
2022-09-14T05:46:22.288Z,1.58
2022-09-14T05:48:51.793Z,1.17
2022-09-14T05:51:20.845Z,1.48
2022-09-14T05:53:49.399Z,2.25
2022-09-14T05:56:19.031Z,1.45
2022-09-14T05:58:47.113Z,1.38
2022-09-14T06:01:15.744Z,1.40
2022-09-14T06:03:44.199Z,1.80
2022-09-14T06:06:12.872Z,1.27
2022-09-14T06:08:40.595Z,1.17
2022-09-14T06:11:09.572Z,1.60
2022-09-14T06:13:38.726Z,1.20
2022-09-14T06:16:06.890Z,1.52
2022-09-14T06:18:35.416Z,1.63
2022-09-14T06:21:03.567Z,1.60
2022-09-14T06:23:31.794Z,1.63
2022-09-14T06:26:00.514Z,1.20
2022-09-14T06:28:28.771Z,1.90
2022-09-14T06:30:57.988Z,1.38
2022-09-14T06:33:26.184Z,1.40
2022-09-14T06:35:57.336Z,1.33
2022-09-14T06:38:25.298Z,1.13
2022-09-14T06:40:54.049Z,0.88
2022-09-14T06:43:21.748Z,1.20
2022-09-14T06:46:01.175Z,1.30
2022-09-14T06:48:29.479Z,1.88
2022-09-14T06:50:57.397Z,1.10
2022-09-14T06:53:25.477Z,1.63
2022-09-14T06:55:54.369Z,1.40
2022-09-14T06:58:22.076Z,1.63
2022-09-14T07:00:49.819Z,2.15
2022-09-14T07:03:18.966Z,1.55
2022-09-14T07:05:46.716Z,1.13
2022-09-14T07:08:14.574Z,1.75
2022-09-14T07:10:44.920Z,1.60
2022-09-14T07:13:12.886Z,1.33
2022-09-14T07:15:56.834Z,1.35
2022-09-14T07:18:33.083Z,1.30
2022-09-14T07:21:05.694Z,1.58
2022-09-14T07:23:34.085Z,1.23
2022-09-14T07:26:02.902Z,1.95
2022-09-14T07:28:32.886Z,1.80
2022-09-14T07:31:03.370Z,1.38
2022-09-14T07:33:32.648Z,1.17
2022-09-14T07:36:07.165Z,1.33
2022-09-14T07:38:51.590Z,1.55
2022-09-14T07:41:20.465Z,1.38
2022-09-14T07:43:49.584Z,1.45
2022-09-14T07:46:17.397Z,1.10
2022-09-14T07:48:46.799Z,1.45
2022-09-14T07:51:14.659Z,1.05
2022-09-14T07:53:43.806Z,1.20
2022-09-14T07:56:17.892Z,1.20
2022-09-14T07:58:46.075Z,0.98
2022-09-14T08:01:15.439Z,1.48
2022-09-14T08:03:43.979Z,1.40
2022-09-14T08:06:14.333Z,1.30
2022-09-14T08:08:44.295Z,1.60
2022-09-14T08:11:13.276Z,1.33
2022-09-14T08:13:42.116Z,1.70
2022-09-14T08:16:10.106Z,2.08
2022-09-14T08:18:40.992Z,1.88
2022-09-14T08:21:10.822Z,1.60
2022-09-14T08:23:40.817Z,1.40
2022-09-14T08:26:09.428Z,1.58
2022-09-14T08:28:37.792Z,1.77
2022-09-14T08:31:06.162Z,1.50
2022-09-14T08:33:34.773Z,1.00
2022-09-14T08:36:03.444Z,1.50
2022-09-14T08:38:31.230Z,1.65
2022-09-14T08:41:06.309Z,1.50
2022-09-14T08:43:34.339Z,2.17
2022-09-14T08:46:04.119Z,1.83
2022-09-14T08:48:35.137Z,1.70
2022-09-14T08:51:04.580Z,2.03
2022-09-14T08:53:34.053Z,2.20
2022-09-14T08:56:04.755Z,1.58
2022-09-14T08:58:43.951Z,1.13
2022-09-14T09:01:24.767Z,1.17
2022-09-14T09:04:09.796Z,1.35
2022-09-14T09:06:41.514Z,1.55
2022-09-14T09:09:12.297Z,1.70
2022-09-14T09:11:44.128Z,2.03
2022-09-14T09:14:18.488Z,1.23
2022-09-14T09:16:48.286Z,1.02
2022-09-14T09:19:21.067Z,1.25
2022-09-14T09:21:49.497Z,1.35
2022-09-14T09:24:21.881Z,1.55
2022-09-14T09:26:51.394Z,1.15
2022-09-14T09:29:19.276Z,1.10
2022-09-14T09:31:49.687Z,1.45
2022-09-14T09:34:18.417Z,1.10
2022-09-14T09:36:47.860Z,1.20
2022-09-14T09:39:15.854Z,1.25
2022-09-14T09:41:45.135Z,1.55
2022-09-14T09:44:14.528Z,1.30
2022-09-14T09:46:46.770Z,1.38
2022-09-14T09:49:19.909Z,1.23
2022-09-14T09:54:23.419Z,1.42
2022-09-14T09:56:56.355Z,1.55
2022-09-14T09:59:31.374Z,1.80
2022-09-14T10:02:14.349Z,1.30
2022-09-14T10:04:56.586Z,1.30
2022-09-14T10:07:24.426Z,1.33
2022-09-14T10:09:58.129Z,1.20
2022-09-14T10:12:25.916Z,1.33
2022-09-14T10:15:06.310Z,1.75
2022-09-14T10:17:34.249Z,1.52
2022-09-14T10:20:02.257Z,1.67
2022-09-14T10:22:31.171Z,1.50
2022-09-14T10:24:59.756Z,1.15
2022-09-14T10:27:38.103Z,1.70
2022-09-14T10:30:12.164Z,1.67
2022-09-14T10:32:43.101Z,1.10
2022-09-14T10:35:15.499Z,1.80
2022-09-14T10:37:51.406Z,1.63
2022-09-14T10:40:22.959Z,1.73
2022-09-14T10:42:56.154Z,1.80
2022-09-14T10:48:00.573Z,1.67
2022-09-14T10:50:34.406Z,2.00
2022-09-14T10:53:20.802Z,2.17
2022-09-14T10:55:52.923Z,1.65
2022-09-14T10:58:28.210Z,1.75
2022-09-14T11:01:02.132Z,2.10
2022-09-14T11:03:45.961Z,1.80
2022-09-14T11:06:20.695Z,2.85
2022-09-14T11:19:35.973Z,1.73
2022-09-14T11:22:45.319Z,2.33
2022-09-14T11:28:53.726Z,2.03
2022-09-14T11:32:16.820Z,1.90
2022-09-14T11:35:19.442Z,2.25
2022-09-14T11:38:07.305Z,1.77
2022-09-14T11:40:58.679Z,1.52
2022-09-14T11:47:28.823Z,1.23
2022-09-14T11:53:20.773Z,1.40
2022-09-14T11:56:12.090Z,2.22
2022-09-14T11:58:52.016Z,1.10
2022-09-14T12:01:33.514Z,1.60
2022-09-14T12:14:49.317Z,1.88
2022-09-14T12:17:59.173Z,3.17
2022-09-14T12:24:32.917Z,1.65
2022-09-14T12:27:39.812Z,2.80
2022-09-14T12:43:53.805Z,1.80
2022-09-14T13:07:40.930Z,3.28
2022-09-14T13:34:30.679Z,1.98
2022-09-14T13:37:36.713Z,2.70
2022-09-14T13:40:28.881Z,2.55
2022-09-14T13:45:42.593Z,2.70
2022-09-14T13:48:14.762Z,2.45
2022-09-14T13:50:45.060Z,2.00
2022-09-14T13:53:27.827Z,2.55
2022-09-14T13:55:55.564Z,2.15
2022-09-14T13:58:23.982Z,2.50
2022-09-14T14:00:55.764Z,2.00
2022-09-14T14:03:34.230Z,2.10
2022-09-14T14:06:05.073Z,2.60
2022-09-14T14:08:35.122Z,2.20
2022-09-14T14:11:03.947Z,2.42
2022-09-14T14:13:33.254Z,2.28
2022-09-14T14:16:17.542Z,3.15
2022-09-14T14:18:50.668Z,2.88
2022-09-14T14:24:09.632Z,2.33
2022-09-14T14:27:09.699Z,2.40
2022-09-14T14:29:37.660Z,2.05
2022-09-14T14:32:05.629Z,2.80
2022-09-14T14:34:33.716Z,6.32
2022-09-14T14:37:02.647Z,8.25
2022-09-14T14:39:33.705Z,3.63
2022-09-14T14:42:02.537Z,11.20
2022-09-14T14:44:30.739Z,14.52
2022-09-14T14:46:58.999Z,5.15
2022-09-14T14:49:28.994Z,3.75
2022-09-14T14:51:56.708Z,4.40
2022-09-14T14:54:24.521Z,4.15
2022-09-14T14:56:53.954Z,2.88
2022-09-14T14:59:29.479Z,3.10
2022-09-14T15:01:58.006Z,2.42
2022-09-14T15:04:25.748Z,2.28
2022-09-14T15:06:53.908Z,2.17
2022-09-14T15:09:23.184Z,3.13
2022-09-14T15:11:51.573Z,2.78
2022-09-14T15:14:25.006Z,2.50
2022-09-14T15:16:58.055Z,3.03
2022-09-14T15:19:28.353Z,2.45
2022-09-14T15:22:00.782Z,2.95
2022-09-14T15:24:29.916Z,3.20
2022-09-14T15:26:57.847Z,3.08
2022-09-14T15:29:27.181Z,3.85
2022-09-14T15:31:55.099Z,4.57
2022-09-14T15:34:23.086Z,4.10
2022-09-14T15:36:51.833Z,4.70
2022-09-14T15:39:20.118Z,4.55
2022-09-14T15:41:47.838Z,4.53
2022-09-14T15:44:15.989Z,5.93
2022-09-14T15:46:45.329Z,5.85
2022-09-14T15:49:13.921Z,6.60
2022-09-14T15:51:43.350Z,6.20
2022-09-14T15:54:11.074Z,5.82
2022-09-14T15:56:39.011Z,6.85
2022-09-14T15:59:07.298Z,5.90
2022-09-14T16:01:35.124Z,6.18
2022-09-14T16:04:09.527Z,5.93
2022-09-14T16:06:38.903Z,5.97
2022-09-14T16:09:07.889Z,5.03
2022-09-14T16:11:36.199Z,5.68
2022-09-14T16:14:05.459Z,4.82
2022-09-14T16:16:33.850Z,4.90
2022-09-14T16:19:06.726Z,4.32
2022-09-14T16:21:34.562Z,4.78
2022-09-14T16:24:03.560Z,3.85
2022-09-14T16:26:33.027Z,3.80
2022-09-14T16:29:02.849Z,3.75
2022-09-14T16:31:31.558Z,6.10
2022-09-14T16:34:00.352Z,4.20
2022-09-14T16:36:30.192Z,4.30
2022-09-14T16:38:58.850Z,4.25
2022-09-14T16:41:27.430Z,4.10
2022-09-14T16:43:55.903Z,5.18
2022-09-14T16:46:23.693Z,3.50
2022-09-14T16:48:51.978Z,4.20
2022-09-14T16:51:21.598Z,3.95
2022-09-14T16:53:51.333Z,4.88
2022-09-14T16:56:20.952Z,4.07
2022-09-14T16:58:49.482Z,3.85
2022-09-14T17:01:18.134Z,4.25
2022-09-14T17:03:46.807Z,4.18
2022-09-14T17:06:15.561Z,3.95
2022-09-14T17:08:44.156Z,3.67
2022-09-14T17:11:14.330Z,4.03
2022-09-14T17:13:43.286Z,3.25
2022-09-14T17:16:12.670Z,4.03
2022-09-14T17:18:41.394Z,3.50
2022-09-14T17:21:11.413Z,3.55
2022-09-14T17:23:39.199Z,3.80
2022-09-14T17:26:08.966Z,3.40
2022-09-14T17:28:38.698Z,4.32
2022-09-14T17:31:08.219Z,3.90
2022-09-14T17:33:36.251Z,3.47
2022-09-14T17:36:05.271Z,3.50
2022-09-14T17:38:34.127Z,4.43
2022-09-14T17:41:02.746Z,4.20
2022-09-14T17:43:30.505Z,4.47
2022-09-14T17:45:59.853Z,4.38
2022-09-14T17:48:28.541Z,4.93
2022-09-14T17:50:58.405Z,4.30
2022-09-14T17:53:26.427Z,4.15
2022-09-14T17:56:01.866Z,4.75
2022-09-14T17:58:29.582Z,4.40
2022-09-14T18:01:06.178Z,4.68
2022-09-14T18:03:34.029Z,5.32
2022-09-14T18:06:01.816Z,4.70
2022-09-14T18:08:30.124Z,5.18
2022-09-14T18:10:58.048Z,4.28
2022-09-14T18:13:25.754Z,5.38
2022-09-14T18:15:57.085Z,5.00
2022-09-14T18:18:26.509Z,5.18
2022-09-14T18:20:54.297Z,4.47
2022-09-14T18:23:22.075Z,4.93
2022-09-14T18:25:49.792Z,4.75
2022-09-14T18:28:19.149Z,4.93
2022-09-14T18:30:47.265Z,5.65
2022-09-14T18:33:16.129Z,5.40
2022-09-14T18:35:45.172Z,4.93
2022-09-14T18:38:13.434Z,6.00
2022-09-14T18:40:41.201Z,5.22
2022-09-14T18:43:08.998Z,5.05
2022-09-14T18:45:36.827Z,5.78
2022-09-14T18:48:04.712Z,4.97
2022-09-14T18:50:32.439Z,4.40
2022-09-14T18:53:04.017Z,4.97
2022-09-14T18:55:33.087Z,4.65
2022-09-14T18:58:01.016Z,3.75
2022-09-14T19:00:28.767Z,4.50
2022-09-14T19:02:57.325Z,3.65
2022-09-14T19:05:25.955Z,3.50
2022-09-14T19:07:53.732Z,3.72
2022-09-14T19:10:22.815Z,3.47
2022-09-14T19:12:50.659Z,3.70
2022-09-14T19:15:19.030Z,3.72
2022-09-14T19:17:46.720Z,3.50
2022-09-14T19:20:14.487Z,3.60
2022-09-14T19:22:42.213Z,4.60
2022-09-14T19:25:10.039Z,4.30
2022-09-14T19:27:39.125Z,5.13
2022-09-14T19:30:07.621Z,5.10
2022-09-14T19:32:35.452Z,4.95
2022-09-14T19:35:03.193Z,4.60
2022-09-14T19:37:31.451Z,4.70
2022-09-14T19:39:59.256Z,4.45
2022-09-14T19:42:27.035Z,5.03
2022-09-14T19:44:56.398Z,4.40
2022-09-14T19:47:24.307Z,4.20
2022-09-14T19:49:52.041Z,4.45
2022-09-14T19:52:19.816Z,3.83
2022-09-14T19:54:47.536Z,4.22
2022-09-14T19:57:15.602Z,4.97
2022-09-14T19:59:43.337Z,4.55
2022-09-14T20:02:13.022Z,5.00
2022-09-14T20:04:41.056Z,4.32
2022-09-14T20:07:08.787Z,4.97
2022-09-14T20:09:37.387Z,4.32
2022-09-14T20:12:05.221Z,4.72
2022-09-14T20:14:33.158Z,4.72
2022-09-14T20:17:00.904Z,5.43
2022-09-14T20:19:30.964Z,4.30
2022-09-14T20:21:58.715Z,4.65
2022-09-14T20:24:27.255Z,4.22
2022-09-14T20:26:57.670Z,4.80
2022-09-14T20:29:26.034Z,4.68
2022-09-14T20:31:53.785Z,5.07
2022-09-14T20:34:21.935Z,5.95
2022-09-14T20:36:51.742Z,4.00
2022-09-14T20:39:22.655Z,4.15
2022-09-14T20:41:50.774Z,4.97
2022-09-14T20:44:22.452Z,5.35
2022-09-14T20:46:50.744Z,5.45
2022-09-14T20:49:19.528Z,5.22
2022-09-14T20:51:47.501Z,5.15
2022-09-14T20:54:17.661Z,5.32
2022-09-14T20:56:46.118Z,5.60
2022-09-14T20:59:14.606Z,5.32
2022-09-14T21:01:44.068Z,5.40
2022-09-14T21:04:13.012Z,5.57
2022-09-14T21:06:41.666Z,4.78
2022-09-14T21:09:10.505Z,5.25
2022-09-14T21:11:40.031Z,4.53
2022-09-14T21:14:07.883Z,4.35
2022-09-14T21:16:36.833Z,4.60
2022-09-14T21:19:05.672Z,4.72
2022-09-14T21:21:33.565Z,6.45
2022-09-14T21:24:01.496Z,4.40
2022-09-14T21:26:32.056Z,4.05
2022-09-14T21:29:02.164Z,4.20
2022-09-14T21:31:30.252Z,3.95
2022-09-14T21:33:58.954Z,4.22
2022-09-14T21:36:27.941Z,4.30
2022-09-14T21:38:56.441Z,3.80
2022-09-14T21:41:24.861Z,4.47
2022-09-14T21:43:53.171Z,4.53
2022-09-14T21:46:22.321Z,3.45
2022-09-14T21:48:50.694Z,4.28
2022-09-14T21:51:19.276Z,3.75
2022-09-14T21:53:47.807Z,3.83
2022-09-14T21:56:16.305Z,4.28
2022-09-14T21:58:44.814Z,4.00
2022-09-14T22:01:12.652Z,4.30
2022-09-14T22:03:41.763Z,3.63
2022-09-14T22:06:12.625Z,3.78
2022-09-14T22:08:40.659Z,3.92
2022-09-14T22:11:10.612Z,3.70
2022-09-14T22:13:38.958Z,3.65
2022-09-14T22:16:08.709Z,3.75
2022-09-14T22:18:36.752Z,3.55
2022-09-14T22:21:06.107Z,3.80
2022-09-14T22:23:34.229Z,3.45
2022-09-14T22:26:05.988Z,4.20
2022-09-14T22:28:33.709Z,4.03
2022-09-14T22:31:01.492Z,4.45
2022-09-14T22:33:29.608Z,3.83
2022-09-14T22:35:58.285Z,3.50
2022-09-14T22:38:28.504Z,3.90
2022-09-14T22:40:56.371Z,3.80
2022-09-14T22:43:24.326Z,3.90
2022-09-14T22:45:55.295Z,5.05
2022-09-14T22:48:23.267Z,3.40
2022-09-14T22:50:52.315Z,3.78
2022-09-14T22:53:21.190Z,3.50
2022-09-14T22:55:50.723Z,3.63
2022-09-14T22:58:19.852Z,4.25
2022-09-14T23:00:47.690Z,4.18
2022-09-14T23:03:16.022Z,4.25
2022-09-14T23:05:50.003Z,4.22
2022-09-14T23:08:18.276Z,3.95
2022-09-14T23:10:46.276Z,4.15
2022-09-14T23:13:15.585Z,4.25
2022-09-14T23:15:43.498Z,4.78
2022-09-14T23:18:12.025Z,5.07
2022-09-14T23:20:40.529Z,4.55
2022-09-14T23:23:08.573Z,4.72
2022-09-14T23:25:37.118Z,4.68
2022-09-14T23:28:05.510Z,4.70
2022-09-14T23:30:34.855Z,4.97
2022-09-14T23:33:02.642Z,4.65
2022-09-14T23:35:33.672Z,4.05
2022-09-14T23:40:31.156Z,5.35
2022-09-14T23:42:58.957Z,5.05
2022-09-14T23:45:26.680Z,5.15
2022-09-14T23:47:56.187Z,5.03
2022-09-14T23:50:24.160Z,5.80
2022-09-14T23:52:52.197Z,6.03
2022-09-14T23:55:19.914Z,5.78
2022-09-14T23:57:47.819Z,6.05
